Time;durP1;ratioP1;P1;durP2;ratioP2;P2;SDS_P1;SDS_P2;PMS_P1;PMS_P2;Temp;Humidity;BMP_temperature;BMP_pressure;BME280_temperature;BME280_humidity;BME280_pressure;Samples;Min_cycle;Max_cycle;Signal;HPM_P1;HPM_P2
2021/12/08 00:01:25;;;;;;;7.80;3.92;;;3.10;99.90;;;;;;4945299;29;20063;-81
2021/12/08 00:03:52;;;;;;;8.85;3.65;;;3.20;99.90;;;;;;4946747;29;20073;-80
2021/12/08 00:06:18;;;;;;;7.50;3.30;;;3.10;99.90;;;;;;4947096;29;20032;-81
2021/12/08 00:08:58;;;;;;;8.60;3.60;;;3.20;99.90;;;;;;4946369;29;20333;-80
2021/12/08 00:14:08;;;;;;;7.30;3.40;;;3.20;99.90;;;;;;4946056;29;20306;-80
2021/12/08 00:16:34;;;;;;;4.93;2.13;;;3.20;99.90;;;;;;4946850;28;20059;-80
2021/12/08 00:19:00;;;;;;;6.07;2.55;;;3.30;99.90;;;;;;4946044;29;20078;-79
2021/12/08 00:21:27;;;;;;;4.75;2.33;;;3.30;99.90;;;;;;4961956;29;20040;-78
2021/12/08 00:23:53;;;;;;;2.88;1.50;;;3.40;99.90;;;;;;4946723;29;20036;-78
2021/12/08 00:26:19;;;;;;;8.40;2.22;;;3.50;99.90;;;;;;4961591;29;20028;-80
2021/12/08 00:28:44;;;;;;;4.22;1.65;;;3.50;99.90;;;;;;4961909;28;20055;-81
2021/12/08 00:31:11;;;;;;;5.78;2.88;;;3.50;99.90;;;;;;4945262;29;20330;-77
2021/12/08 00:33:36;;;;;;;8.63;3.50;;;3.50;99.90;;;;;;4946577;29;20075;-79
2021/12/08 00:36:06;;;;;;;7.25;3.97;;;3.50;99.90;;;;;;4961220;28;20059;-78
2021/12/08 00:38:32;;;;;;;4.75;2.50;;;3.60;99.90;;;;;;4961574;28;20147;-78
2021/12/08 00:40:58;;;;;;;4.38;2.28;;;3.60;99.90;;;;;;4961194;28;20250;-80
2021/12/08 00:43:24;;;;;;;3.85;1.40;;;3.60;99.90;;;;;;4946936;29;20079;-77
2021/12/08 00:45:51;;;;;;;5.05;2.38;;;3.60;99.90;;;;;;4944930;29;20043;-78
2021/12/08 00:48:17;;;;;;;3.75;1.27;;;3.60;99.90;;;;;;4945373;29;20332;-81
2021/12/08 00:50:44;;;;;;;4.68;1.40;;;3.60;99.90;;;;;;4945161;29;20074;-79
2021/12/08 00:53:10;;;;;;;3.72;1.40;;;3.60;99.90;;;;;;4946285;29;20125;-78
2021/12/08 00:55:36;;;;;;;3.30;1.50;;;3.60;99.90;;;;;;4946344;29;20082;-79
2021/12/08 00:58:03;;;;;;;3.88;1.20;;;3.50;99.90;;;;;;4945743;29;20037;-78
2021/12/08 01:00:36;;;;;;;3.88;1.83;;;3.40;99.90;;;;;;4944169;29;20051;-77
2021/12/08 01:03:02;;;;;;;3.30;1.50;;;3.30;99.90;;;;;;4941780;29;20489;-78
2021/12/08 01:05:33;;;;;;;5.15;1.63;;;3.20;99.90;;;;;;4942454;29;20187;-79
2021/12/08 01:07:58;;;;;;;5.38;1.25;;;3.20;99.90;;;;;;4926934;29;20091;-79
2021/12/08 01:10:28;;;;;;;3.92;1.42;;;3.10;99.90;;;;;;4927120;29;20031;-79
2021/12/08 01:12:55;;;;;;;2.90;1.30;;;3.10;99.90;;;;;;4926556;29;20024;-79
2021/12/08 01:15:22;;;;;;;4.60;1.30;;;3.10;99.90;;;;;;4925574;29;20104;-81
2021/12/08 01:17:48;;;;;;;3.97;1.73;;;3.10;99.90;;;;;;4925533;29;20199;-78
2021/12/08 01:20:16;;;;;;;6.30;1.55;;;3.00;99.90;;;;;;4927170;29;20120;-78
2021/12/08 01:22:44;;;;;;;3.72;1.50;;;3.00;99.90;;;;;;4927279;29;20058;-77
2021/12/08 01:25:10;;;;;;;2.90;1.50;;;3.00;99.90;;;;;;4926281;29;20031;-78
2021/12/08 01:27:36;;;;;;;3.95;1.63;;;3.00;99.90;;;;;;4925990;29;20381;-78
2021/12/08 01:30:04;;;;;;;2.90;1.10;;;2.90;99.90;;;;;;4944942;29;20043;-79
2021/12/08 01:32:30;;;;;;;3.75;1.20;;;2.80;99.90;;;;;;4945429;29;20046;-80
2021/12/08 01:34:56;;;;;;;3.83;1.40;;;2.70;99.90;;;;;;4944938;29;20082;-78
2021/12/08 01:37:22;;;;;;;3.67;1.75;;;2.80;99.90;;;;;;4960609;28;20032;-78
2021/12/08 01:39:48;;;;;;;2.95;1.10;;;2.80;99.90;;;;;;4944368;29;20262;-79
2021/12/08 01:42:26;;;;;;;2.42;1.30;;;2.80;99.90;;;;;;4960271;29;20028;-78
2021/12/08 01:47:37;;;;;;;3.83;1.25;;;2.70;99.90;;;;;;4944281;28;20043;-79
2021/12/08 01:50:05;;;;;;;2.67;1.40;;;2.80;99.90;;;;;;4959618;28;20059;-78
2021/12/08 01:52:31;;;;;;;3.33;1.20;;;2.80;99.90;;;;;;4945248;29;20039;-80
2021/12/08 01:54:57;;;;;;;3.13;1.50;;;2.80;99.90;;;;;;4959915;28;20043;-80
2021/12/08 01:57:23;;;;;;;3.72;1.13;;;2.80;99.90;;;;;;4945330;29;20071;-80
2021/12/08 01:59:48;;;;;;;3.53;1.50;;;2.80;99.90;;;;;;4959674;28;20039;-79
2021/12/08 02:02:14;;;;;;;4.10;1.52;;;2.80;99.90;;;;;;4944225;29;20354;-80
2021/12/08 02:04:41;;;;;;;4.32;1.90;;;2.90;99.90;;;;;;4945275;29;20030;-79
2021/12/08 02:07:07;;;;;;;2.30;1.17;;;2.90;99.90;;;;;;4950783;29;20039;-79
2021/12/08 02:09:33;;;;;;;4.97;1.52;;;2.90;99.90;;;;;;4963223;29;20030;-79
2021/12/08 02:11:59;;;;;;;3.97;1.50;;;2.80;99.90;;;;;;4963540;29;20098;-79
2021/12/08 02:14:25;;;;;;;5.15;1.48;;;2.80;99.90;;;;;;4963466;29;20042;-78
2021/12/08 02:16:53;;;;;;;2.83;1.30;;;2.80;99.90;;;;;;4945117;29;20020;-81
2021/12/08 02:19:20;;;;;;;3.95;1.80;;;2.80;99.90;;;;;;4942873;29;20059;-79
2021/12/08 02:21:52;;;;;;;4.78;2.20;;;2.90;99.90;;;;;;4950668;28;20220;-79
2021/12/08 02:24:19;;;;;;;6.68;2.17;;;2.80;99.90;;;;;;4944360;29;20049;-80
2021/12/08 02:26:50;;;;;;;4.97;2.00;;;2.80;99.90;;;;;;4962555;29;20039;-79
2021/12/08 02:29:33;;;;;;;7.13;2.88;;;2.80;99.90;;;;;;4952780;29;20031;-79
2021/12/08 02:32:29;;;;;;;5.70;2.42;;;2.80;99.90;;;;;;4959853;29;20266;-79
2021/12/08 02:48:38;;;;;;;6.22;2.55;;;2.80;99.90;;;;;;4960071;29;20305;-78
2021/12/08 02:51:04;;;;;;;9.48;2.90;;;2.80;99.90;;;;;;4959070;29;20039;-80
2021/12/08 02:53:32;;;;;;;5.18;2.30;;;2.80;99.90;;;;;;4956842;29;20300;-79
2021/12/08 02:55:57;;;;;;;5.32;2.60;;;2.90;99.90;;;;;;4954752;29;20039;-79
2021/12/08 02:58:25;;;;;;;3.92;2.00;;;2.90;99.90;;;;;;4966964;29;20015;-78
2021/12/08 03:00:58;;;;;;;6.95;2.42;;;2.90;99.90;;;;;;4974370;29;20016;-77
2021/12/08 03:03:24;;;;;;;4.97;2.03;;;2.90;99.90;;;;;;4977461;29;20241;-77
2021/12/08 03:05:50;;;;;;;5.95;2.50;;;2.90;99.90;;;;;;4960051;29;20337;-79
2021/12/08 03:08:16;;;;;;;6.68;2.67;;;2.90;99.90;;;;;;4958611;29;20046;-78
2021/12/08 03:10:45;;;;;;;5.13;2.35;;;3.00;99.90;;;;;;4955579;28;20039;-79
2021/12/08 03:13:12;;;;;;;6.53;2.20;;;2.90;99.90;;;;;;4951739;29;20027;-78
2021/12/08 03:15:38;;;;;;;7.55;2.58;;;2.80;99.90;;;;;;4955658;29;20042;-77
2021/12/08 03:18:04;;;;;;;7.20;2.33;;;2.80;99.90;;;;;;4962342;29;20094;-79
2021/12/08 03:20:41;;;;;;;5.40;2.70;;;2.80;99.90;;;;;;4964609;28;20034;-79
2021/12/08 03:23:11;;;;;;;7.13;2.28;;;2.80;99.90;;;;;;4958500;28;20039;-78
2021/12/08 03:25:41;;;;;;;6.05;2.60;;;2.70;99.90;;;;;;4946254;29;20042;-78
2021/12/08 03:28:18;;;;;;;7.72;2.47;;;2.60;99.90;;;;;;4941544;29;20039;-78
2021/12/08 03:33:29;;;;;;;4.65;2.20;;;2.70;99.90;;;;;;4972274;28;20039;-78
2021/12/08 03:35:55;;;;;;;4.18;1.73;;;2.70;99.90;;;;;;4965888;29;20329;-78
2021/12/08 03:38:22;;;;;;;4.82;1.90;;;2.70;99.90;;;;;;4964399;29;20043;-78
2021/12/08 03:40:49;;;;;;;5.30;2.10;;;2.80;99.90;;;;;;4965923;28;20102;-78
2021/12/08 03:43:15;;;;;;;4.32;2.75;;;2.80;99.90;;;;;;4965071;29;20225;-79
2021/12/08 03:45:47;;;;;;;4.55;1.90;;;2.90;99.90;;;;;;4953227;29;20099;-78
2021/12/08 03:48:24;;;;;;;3.85;2.05;;;2.90;99.90;;;;;;4946390;29;20318;-78
2021/12/08 03:50:51;;;;;;;3.80;1.83;;;2.90;99.90;;;;;;4950969;28;20218;-79
2021/12/08 03:53:17;;;;;;;3.85;2.10;;;2.90;99.90;;;;;;4955189;29;20490;-80
2021/12/08 03:55:45;;;;;;;6.60;1.88;;;3.00;99.90;;;;;;4954331;29;20039;-78
2021/12/08 03:58:12;;;;;;;5.38;2.30;;;3.00;99.90;;;;;;4954423;29;20313;-77
2021/12/08 04:00:39;;;;;;;4.78;2.08;;;2.90;99.90;;;;;;4935206;29;20106;-77
2021/12/08 04:03:06;;;;;;;3.95;2.00;;;2.90;99.90;;;;;;4928960;29;20392;-78
2021/12/08 04:06:27;;;;;;;5.27;1.87;;;3.00;99.90;;;;;;4957102;29;20045;-78
2021/12/08 04:08:56;;;;;;;4.25;1.80;;;3.00;99.90;;;;;;4959199;28;20086;-77
2021/12/08 04:11:17;;;;;;;5.15;2.15;;;3.00;99.90;;;;;;4956168;28;20058;-78
2021/12/08 04:13:50;;;;;;;3.75;2.03;;;3.00;99.90;;;;;;4960173;29;20023;-78
2021/12/08 04:16:19;;;;;;;3.13;1.70;;;3.00;99.90;;;;;;4948874;28;20043;-78
2021/12/08 04:18:46;;;;;;;4.35;1.95;;;3.10;99.90;;;;;;4952239;29;20098;-78
2021/12/08 04:21:15;;;;;;;3.65;2.17;;;3.00;99.90;;;;;;4953607;29;20043;-78
2021/12/08 04:23:42;;;;;;;3.00;1.77;;;3.10;99.90;;;;;;4964762;29;20035;-78
2021/12/08 04:26:33;;;;;;;4.63;1.90;;;3.10;99.90;;;;;;4964575;29;20101;-78
2021/12/08 04:29:00;;;;;;;5.10;2.28;;;3.20;99.90;;;;;;4942314;29;20376;-78
2021/12/08 04:31:29;;;;;;;5.97;2.38;;;3.30;99.90;;;;;;4957637;29;20051;-78
2021/12/08 04:34:00;;;;;;;5.30;2.30;;;3.40;99.90;;;;;;4958006;29;20039;-78
2021/12/08 04:36:31;;;;;;;4.75;2.40;;;3.40;99.90;;;;;;4953502;29;20027;-78
2021/12/08 04:39:00;;;;;;;4.60;2.17;;;3.50;99.90;;;;;;4960104;29;20042;-78
2021/12/08 04:41:38;;;;;;;6.43;2.47;;;3.50;99.90;;;;;;4947412;29;20036;-78
2021/12/08 04:44:36;;;;;;;6.97;3.03;;;3.50;99.90;;;;;;4960397;29;20100;-78
2021/12/08 04:52:29;;;;;;;;;;;3.40;99.90;;;;;;4961990;29;20063;-79
2021/12/08 05:06:20;;;;;;;11.63;4.90;;;3.40;99.90;;;;;;4945347;29;20106;-77
2021/12/08 05:08:49;;;;;;;17.77;5.32;;;3.40;99.90;;;;;;4957005;29;20106;-78
2021/12/08 05:11:15;;;;;;;10.55;5.13;;;3.40;99.90;;;;;;4962534;29;20049;-79
2021/12/08 05:13:43;;;;;;;8.30;4.13;;;3.40;99.90;;;;;;4944139;29;20062;-79
2021/12/08 05:16:10;;;;;;;7.13;3.65;;;3.30;99.90;;;;;;4948405;29;20249;-78
2021/12/08 05:18:40;;;;;;;5.65;3.25;;;3.30;99.90;;;;;;4943538;29;20058;-79
2021/12/08 05:21:14;;;;;;;10.50;3.63;;;3.30;99.90;;;;;;4952213;29;20038;-80
2021/12/08 05:23:46;;;;;;;10.13;3.53;;;3.30;99.90;;;;;;4945208;29;20074;-78
2021/12/08 05:26:24;;;;;;;9.18;4.38;;;3.30;99.90;;;;;;4943824;29;20111;-79
2021/12/08 05:28:55;;;;;;;7.05;4.50;;;3.30;99.90;;;;;;4950557;29;20028;-78
2021/12/08 05:31:26;;;;;;;6.93;3.88;;;3.40;99.90;;;;;;4944242;29;20294;-79
2021/12/08 05:33:53;;;;;;;6.80;3.80;;;3.40;99.90;;;;;;4955718;29;20031;-78
2021/12/08 05:36:19;;;;;;;8.20;4.32;;;3.40;99.90;;;;;;4944551;29;20028;-78
2021/12/08 05:38:46;;;;;;;8.52;4.22;;;3.50;99.90;;;;;;4928128;29;20075;-77
2021/12/08 05:41:15;;;;;;;6.45;3.65;;;3.50;99.90;;;;;;4958918;29;20102;-78
2021/12/08 05:43:42;;;;;;;6.03;3.42;;;3.50;99.90;;;;;;4963700;29;20142;-77
2021/12/08 05:46:14;;;;;;;9.27;4.15;;;3.60;99.90;;;;;;4954587;29;20079;-77
2021/12/08 05:48:42;;;;;;;6.13;3.67;;;3.60;99.90;;;;;;4945653;29;20047;-79
2021/12/08 05:51:08;;;;;;;6.43;3.47;;;3.60;99.90;;;;;;4951143;29;20101;-78
2021/12/08 05:53:36;;;;;;;8.23;4.25;;;3.70;99.90;;;;;;4955080;29;20330;-78
2021/12/08 05:56:28;;;;;;;9.27;4.07;;;3.70;99.90;;;;;;4962122;29;20051;-79
2021/12/08 05:59:19;;;;;;;6.72;3.53;;;3.70;99.90;;;;;;4943323;29;20392;-77
2021/12/08 06:01:51;;;;;;;6.72;3.60;;;3.70;99.90;;;;;;4951892;29;20032;-77
2021/12/08 06:04:19;;;;;;;7.07;4.15;;;3.80;99.90;;;;;;4955440;29;20050;-78
2021/12/08 06:06:47;;;;;;;7.55;4.30;;;3.80;99.90;;;;;;4954570;29;20097;-77
2021/12/08 06:09:15;;;;;;;8.20;4.07;;;3.80;99.90;;;;;;4934339;29;20027;-78
2021/12/08 06:11:43;;;;;;;6.70;4.50;;;3.80;99.90;;;;;;4948358;29;20209;-78
2021/12/08 06:14:11;;;;;;;7.15;4.70;;;3.70;99.90;;;;;;4942094;29;20020;-79
2021/12/08 06:16:39;;;;;;;7.63;4.43;;;3.60;99.90;;;;;;4945680;29;20041;-77
2021/12/08 06:19:08;;;;;;;9.20;5.05;;;3.70;99.90;;;;;;4954502;29;20051;-80
2021/12/08 06:21:34;;;;;;;11.10;4.60;;;3.60;99.90;;;;;;4943619;29;20199;-78
2021/12/08 06:24:04;;;;;;;8.25;4.82;;;3.70;99.90;;;;;;4951506;29;20195;-79
2021/12/08 06:26:31;;;;;;;10.15;4.90;;;3.80;99.90;;;;;;4950881;29;20035;-80
2021/12/08 06:28:57;;;;;;;8.68;5.03;;;3.90;99.90;;;;;;4957483;29;20039;-77
2021/12/08 06:31:26;;;;;;;8.27;4.82;;;3.90;99.90;;;;;;4951736;28;20340;-76
2021/12/08 06:33:53;;;;;;;;;;;3.90;99.90;;;;;;4950449;29;20299;-76
2021/12/08 06:36:26;;;;;;;9.05;4.70;;;4.00;99.90;;;;;;4943562;29;19969;-77
2021/12/08 06:38:52;;;;;;;10.63;5.10;;;4.00;99.90;;;;;;4951640;29;20132;-76
2021/12/08 06:41:20;;;;;;;9.68;5.10;;;4.00;99.90;;;;;;4963102;29;20035;-78
2021/12/08 06:43:51;;;;;;;11.23;5.32;;;4.10;99.90;;;;;;4951369;29;20127;-77
2021/12/08 06:46:17;;;;;;;7.50;4.90;;;4.10;99.90;;;;;;4952488;28;20063;-77
2021/12/08 06:48:48;;;;;;;8.18;4.70;;;4.10;99.90;;;;;;4955418;29;20035;-77
2021/12/08 06:51:39;;;;;;;13.82;5.88;;;4.10;99.90;;;;;;4960969;29;20097;-80
2021/12/08 06:54:10;;;;;;;10.25;5.45;;;4.10;99.90;;;;;;4934252;29;20110;-78
2021/12/08 06:56:41;;;;;;;11.00;5.90;;;4.10;99.90;;;;;;4946856;29;20478;-76
2021/12/08 06:59:20;;;;;;;10.20;6.22;;;4.00;99.90;;;;;;4947265;29;20031;-77
2021/12/08 07:02:04;;;;;;;10.82;5.70;;;4.00;99.90;;;;;;4945930;29;20039;-76
2021/12/08 07:05:09;;;;;;;11.60;6.38;;;4.00;99.90;;;;;;4943317;29;20036;-76
2021/12/08 07:07:36;;;;;;;9.98;5.70;;;4.00;99.90;;;;;;4936312;29;20218;-76
2021/12/08 07:10:21;;;;;;;13.50;6.18;;;4.00;99.90;;;;;;4958746;29;20091;-78
2021/12/08 07:12:56;;;;;;;14.85;6.60;;;4.00;99.90;;;;;;4949396;29;20035;-78
2021/12/08 07:15:26;;;;;;;18.13;6.40;;;3.90;99.90;;;;;;4942238;29;20404;-76
2021/12/08 07:17:56;;;;;;;24.17;7.50;;;3.90;99.90;;;;;;4949224;29;20046;-76
2021/12/08 07:22:54;;;;;;;15.00;6.40;;;3.90;99.90;;;;;;4938501;29;20158;-76
2021/12/08 07:25:24;;;;;;;16.67;7.10;;;3.90;99.90;;;;;;4948181;29;20031;-78
2021/12/08 07:27:50;;;;;;;9.70;5.85;;;3.90;99.90;;;;;;4966362;29;20058;-76
2021/12/08 07:30:30;;;;;;;12.07;6.10;;;3.90;99.90;;;;;;4962689;28;20035;-77
2021/12/08 07:32:58;;;;;;;13.25;7.50;;;4.00;99.90;;;;;;4946141;29;20318;-77
2021/12/08 07:35:38;;;;;;;11.20;6.05;;;4.10;99.90;;;;;;4939937;29;20032;-77
2021/12/08 07:38:10;;;;;;;8.88;6.00;;;4.10;99.90;;;;;;4932184;29;20030;-77
2021/12/08 07:40:44;;;;;;;11.65;6.57;;;4.00;99.90;;;;;;4947046;29;20071;-77
2021/12/08 07:43:16;;;;;;;10.25;5.75;;;4.00;99.90;;;;;;4946397;29;20058;-78
2021/12/08 07:46:02;;;;;;;7.95;5.55;;;4.00;99.90;;;;;;4946663;29;20067;-78
2021/12/08 07:48:34;;;;;;;11.23;5.88;;;4.10;99.90;;;;;;4946331;29;20042;-76
2021/12/08 07:51:31;;;;;;;9.68;5.90;;;4.20;99.90;;;;;;4945353;29;20055;-76
2021/12/08 07:53:58;;;;;;;10.07;5.60;;;4.20;99.90;;;;;;4948017;29;20103;-76
2021/12/08 07:56:26;;;;;;;13.05;6.50;;;4.20;99.90;;;;;;4946044;29;20055;-77
2021/12/08 07:58:56;;;;;;;11.55;5.80;;;4.30;99.90;;;;;;4946469;29;20032;-80
2021/12/08 08:01:34;;;;;;;10.27;6.07;;;4.30;99.90;;;;;;4956770;28;20051;-76
2021/12/08 08:04:03;;;;;;;11.57;7.10;;;4.30;99.90;;;;;;4928210;29;20040;-77
2021/12/08 08:06:33;;;;;;;10.63;6.03;;;4.30;99.90;;;;;;4924775;29;20280;-76
2021/12/08 08:09:00;;;;;;;11.98;7.00;;;4.30;99.90;;;;;;4925287;29;20153;-76
2021/12/08 08:11:36;;;;;;;15.07;7.25;;;4.30;99.90;;;;;;4924879;29;20046;-78
2021/12/08 08:14:03;;;;;;;11.57;6.80;;;4.30;99.90;;;;;;4925285;29;20056;-77
2021/12/08 08:16:32;;;;;;;11.23;6.30;;;4.30;99.90;;;;;;4924464;29;20040;-76
2021/12/08 08:19:06;;;;;;;12.48;7.20;;;4.30;99.90;;;;;;4924963;29;20327;-76
2021/12/08 08:21:37;;;;;;;12.25;6.85;;;4.40;99.90;;;;;;4924651;29;20124;-78
2021/12/08 08:24:04;;;;;;;10.25;7.05;;;4.40;99.90;;;;;;4909422;29;20150;-76
2021/12/08 08:26:33;;;;;;;14.27;7.35;;;4.40;99.90;;;;;;4924514;29;20035;-77
2021/12/08 08:28:59;;;;;;;;;;;4.30;99.90;;;;;;4925692;29;20059;-76
2021/12/08 08:31:43;;;;;;;11.38;6.55;;;4.40;99.90;;;;;;4935301;29;19914;-78
2021/12/08 08:34:10;;;;;;;8.52;5.93;;;4.40;99.90;;;;;;4947182;29;20046;-76
2021/12/08 08:36:43;;;;;;;11.20;5.78;;;4.50;99.90;;;;;;4957975;28;20392;-78
2021/12/08 08:39:18;;;;;;;8.27;5.47;;;4.50;99.90;;;;;;4944498;29;20039;-77
2021/12/08 08:41:59;;;;;;;8.20;5.38;;;4.60;99.90;;;;;;4941750;29;20151;-77
2021/12/08 08:44:44;;;;;;;9.55;5.78;;;4.60;99.90;;;;;;4944865;29;20229;-77
2021/12/08 08:47:15;;;;;;;7.47;5.78;;;4.70;99.90;;;;;;4945583;29;20102;-76
2021/12/08 08:49:43;;;;;;;8.73;5.80;;;4.70;99.90;;;;;;4956135;29;20074;-76
2021/12/08 08:52:14;;;;;;;9.52;6.35;;;4.70;99.90;;;;;;4941357;29;20227;-77
2021/12/08 08:54:42;;;;;;;9.70;5.55;;;4.70;99.90;;;;;;4960467;28;20031;-77
2021/12/08 08:57:17;;;;;;;10.77;5.75;;;4.80;99.90;;;;;;4945152;29;20015;-76
2021/12/08 08:59:48;;;;;;;8.77;5.30;;;4.70;99.90;;;;;;4944397;29;20058;-77
2021/12/08 09:02:20;;;;;;;11.82;6.38;;;4.70;99.90;;;;;;4944218;29;20051;-76
2021/12/08 09:04:57;;;;;;;10.32;5.75;;;4.80;99.90;;;;;;4943670;29;20071;-76
2021/12/08 09:07:31;;;;;;;9.35;5.95;;;4.70;99.90;;;;;;4961556;29;21219;-78
2021/12/08 09:10:03;;;;;;;9.52;5.55;;;4.80;99.90;;;;;;4964754;28;20059;-76
2021/12/08 09:12:47;;;;;;;9.13;5.53;;;4.80;99.90;;;;;;4964044;29;20102;-78
2021/12/08 09:15:17;;;;;;;8.20;5.63;;;4.90;99.90;;;;;;4962619;28;20039;-78
2021/12/08 09:17:57;;;;;;;10.35;5.72;;;4.90;99.90;;;;;;4964052;29;20039;-78
2021/12/08 09:20:25;;;;;;;7.82;5.80;;;4.90;99.90;;;;;;4942614;29;20657;-76
2021/12/08 09:23:09;;;;;;;8.35;5.22;;;4.90;99.90;;;;;;4944110;29;20035;-78
2021/12/08 09:25:45;;;;;;;7.95;5.07;;;5.00;99.90;;;;;;4944837;29;20074;-76
2021/12/08 09:28:27;;;;;;;9.15;5.57;;;5.00;99.90;;;;;;4943801;29;20031;-76
2021/12/08 09:31:02;;;;;;;8.15;5.60;;;5.00;99.90;;;;;;4943978;29;20047;-78
2021/12/08 09:33:37;;;;;;;8.10;5.20;;;5.00;99.90;;;;;;4962595;29;20030;-78
2021/12/08 09:36:13;;;;;;;8.02;4.82;;;5.10;99.90;;;;;;4953640;29;20038;-78
2021/12/08 09:38:45;;;;;;;9.60;6.43;;;5.10;99.90;;;;;;4944414;29;20054;-78
2021/12/08 09:41:18;;;;;;;10.75;6.28;;;5.20;99.90;;;;;;4944542;29;20040;-77
2021/12/08 09:44:01;;;;;;;11.02;6.45;;;5.20;99.90;;;;;;4944919;29;20035;-76
2021/12/08 09:46:37;;;;;;;11.60;5.85;;;5.20;99.90;;;;;;4945102;29;20044;-76
2021/12/08 09:49:04;;;;;;;13.52;6.78;;;5.30;99.90;;;;;;4941984;29;20181;-78
2021/12/08 09:51:30;;;;;;;12.63;6.57;;;5.30;99.90;;;;;;4939895;29;20039;-78
2021/12/08 09:53:58;;;;;;;11.27;6.45;;;5.30;99.90;;;;;;4940176;29;20032;-80
2021/12/08 09:56:25;;;;;;;16.48;7.35;;;5.30;99.90;;;;;;4968573;28;20031;-78
2021/12/08 09:58:53;;;;;;;15.55;7.40;;;5.40;99.90;;;;;;4943185;29;20046;-78
2021/12/08 10:01:21;;;;;;;17.03;8.43;;;5.40;99.90;;;;;;4944516;29;20067;-78
2021/12/08 10:03:49;;;;;;;22.35;9.73;;;5.40;99.90;;;;;;4943306;29;20036;-77
2021/12/08 10:06:16;;;;;;;23.25;9.88;;;5.40;99.90;;;;;;4948061;29;20040;-77
2021/12/08 10:08:43;;;;;;;18.77;7.93;;;5.50;99.90;;;;;;4954492;28;20119;-77
2021/12/08 10:11:11;;;;;;;16.10;7.20;;;5.50;99.90;;;;;;4943920;29;20024;-77
2021/12/08 10:13:37;;;;;;;13.77;6.95;;;5.50;99.90;;;;;;4974961;28;20282;-77
2021/12/08 10:16:03;;;;;;;12.00;6.97;;;5.50;99.90;;;;;;4956881;28;20036;-76
2021/12/08 10:18:29;;;;;;;10.60;6.45;;;5.60;99.90;;;;;;4950235;29;20093;-77
2021/12/08 10:20:56;;;;;;;13.00;5.93;;;5.50;99.90;;;;;;4952972;29;20039;-77
2021/12/08 10:23:32;;;;;;;11.32;6.20;;;5.40;99.90;;;;;;4953485;29;20031;-77
2021/12/08 10:26:08;;;;;;;10.38;6.60;;;5.30;99.90;;;;;;4962362;29;20258;-77
2021/12/08 10:28:40;;;;;;;11.18;5.97;;;5.30;99.90;;;;;;4945630;29;20061;-78
2021/12/08 10:31:13;;;;;;;11.38;6.38;;;5.30;99.90;;;;;;4942816;29;20044;-78
2021/12/08 10:33:58;;;;;;;11.95;6.72;;;5.30;99.90;;;;;;4945380;29;20024;-77
2021/12/08 10:39:10;;;;;;;9.52;5.60;;;5.40;99.90;;;;;;4943156;29;20043;-78
2021/12/08 10:42:04;;;;;;;10.07;6.25;;;5.40;99.90;;;;;;4942171;29;20107;-77
2021/12/08 10:47:49;;;;;;;11.30;5.90;;;5.50;99.90;;;;;;4940277;29;20338;-76
2021/12/08 10:56:12;;;;;;;10.68;6.10;;;5.40;99.90;;;;;;4943907;29;20047;-77
2021/12/08 10:58:43;;;;;;;11.52;5.95;;;5.50;99.90;;;;;;4949816;28;20058;-76
2021/12/08 11:01:16;;;;;;;11.07;6.47;;;5.40;99.90;;;;;;4963740;29;20086;-77
2021/12/08 11:03:43;;;;;;;11.68;5.78;;;5.50;99.90;;;;;;4950811;29;20039;-77
2021/12/08 11:06:12;;;;;;;10.57;6.18;;;5.50;99.90;;;;;;4947437;29;20043;-77
2021/12/08 11:08:41;;;;;;;11.85;6.15;;;5.60;99.90;;;;;;4953664;29;20393;-78
2021/12/08 11:11:10;;;;;;;;;;;5.60;99.90;;;;;;4966050;29;20062;-78
2021/12/08 11:13:40;;;;;;;12.25;5.85;;;5.70;99.90;;;;;;4964990;29;19978;-77
2021/12/08 11:16:14;;;;;;;9.30;5.82;;;5.70;99.90;;;;;;4964650;29;20043;-77
2021/12/08 11:18:42;;;;;;;10.27;5.95;;;5.80;99.90;;;;;;4946891;29;20051;-76
2021/12/08 11:21:17;;;;;;;;;;;5.80;99.90;;;;;;4946489;29;20036;-79
2021/12/08 11:23:45;;;;;;;9.38;5.38;;;5.80;99.90;;;;;;4945813;29;19928;-78
2021/12/08 11:26:25;;;;;;;9.20;5.68;;;5.80;99.90;;;;;;4947205;29;20050;-78
2021/12/08 11:28:58;;;;;;;9.60;5.47;;;5.90;99.90;;;;;;4947236;29;20039;-77
2021/12/08 11:31:27;;;;;;;8.75;4.85;;;5.90;99.90;;;;;;4952984;29;20050;-77
2021/12/08 11:34:04;;;;;;;8.35;4.82;;;5.90;99.90;;;;;;4946960;29;20126;-76
2021/12/08 11:36:35;;;;;;;9.20;5.13;;;5.80;99.90;;;;;;4942715;29;20036;-75
2021/12/08 11:39:16;;;;;;;9.43;4.78;;;5.90;99.90;;;;;;4943776;29;20045;-77
2021/12/08 11:41:54;;;;;;;13.10;5.60;;;5.90;99.90;;;;;;4960928;29;20286;-78
2021/12/08 11:44:24;;;;;;;11.20;6.20;;;5.80;99.90;;;;;;4961912;29;20035;-76
2021/12/08 11:46:54;;;;;;;7.57;5.22;;;5.70;99.90;;;;;;4945510;28;20036;-77
2021/12/08 11:49:21;;;;;;;7.82;4.82;;;5.70;99.90;;;;;;4941678;29;20095;-79
2021/12/08 11:51:49;;;;;;;8.43;4.68;;;5.80;99.90;;;;;;4957157;28;20042;-77
2021/12/08 11:54:29;;;;;;;7.97;4.18;;;5.80;99.90;;;;;;4946154;29;20039;-78
2021/12/08 11:57:10;;;;;;;8.07;5.15;;;5.80;99.90;;;;;;4940872;29;20047;-76
2021/12/08 11:59:55;;;;;;;7.80;4.65;;;5.80;99.90;;;;;;4945064;29;20111;-78
2021/12/08 12:02:25;;;;;;;7.53;5.05;;;5.80;99.90;;;;;;4950420;29;20095;-77
2021/12/08 12:04:51;;;;;;;9.55;5.28;;;5.90;99.90;;;;;;4945719;29;20032;-76
2021/12/08 12:07:18;;;;;;;8.82;4.80;;;5.90;99.90;;;;;;4942584;29;20120;-78
2021/12/08 12:09:45;;;;;;;9.10;5.00;;;5.90;99.90;;;;;;4945858;29;20314;-77
2021/12/08 12:12:12;;;;;;;7.67;5.00;;;5.90;99.90;;;;;;4944896;29;20032;-78
2021/12/08 12:14:38;;;;;;;9.38;4.82;;;6.10;99.90;;;;;;4945635;29;20440;-78
2021/12/08 12:17:04;;;;;;;7.57;4.82;;;6.10;99.90;;;;;;4945540;29;20112;-77
2021/12/08 12:19:42;;;;;;;10.60;5.55;;;6.20;99.90;;;;;;4945210;29;20118;-77
2021/12/08 12:22:17;;;;;;;8.70;4.93;;;6.20;99.90;;;;;;4945259;29;20051;-78
2021/12/08 12:25:20;;;;;;;10.27;5.40;;;6.20;99.90;;;;;;4945644;29;20040;-77
2021/12/08 12:28:19;;;;;;;7.35;5.07;;;6.20;99.90;;;;;;4945746;29;20218;-78
2021/12/08 12:31:03;;;;;;;8.13;5.05;;;6.20;99.90;;;;;;4941445;29;20457;-78
2021/12/08 12:33:43;;;;;;;8.95;5.20;;;6.20;99.90;;;;;;4961251;29;20165;-76
2021/12/08 12:36:23;;;;;;;8.70;4.90;;;6.20;99.90;;;;;;4945746;29;20099;-78
2021/12/08 12:38:50;;;;;;;7.63;4.90;;;6.20;99.90;;;;;;4945548;29;20087;-77
2021/12/08 12:41:26;;;;;;;7.25;4.38;;;6.30;99.90;;;;;;4946195;29;20031;-77
2021/12/08 12:44:12;;;;;;;8.63;4.85;;;6.30;99.90;;;;;;4945827;29;20046;-78
2021/12/08 12:46:38;;;;;;;9.88;5.25;;;6.30;99.90;;;;;;4927804;29;20047;-77
2021/12/08 12:49:23;;;;;;;8.20;5.18;;;6.40;99.90;;;;;;4960831;29;20202;-77
2021/12/08 12:52:00;;;;;;;9.82;4.78;;;6.40;99.90;;;;;;4964607;29;20106;-80
2021/12/08 12:54:27;;;;;;;7.55;4.65;;;6.40;99.90;;;;;;4964956;29;20026;-77
2021/12/08 12:56:56;;;;;;;7.45;3.90;;;6.50;99.90;;;;;;4949661;29;20035;-76
2021/12/08 12:59:25;;;;;;;7.18;4.13;;;6.50;99.90;;;;;;4928033;29;20043;-77
2021/12/08 13:02:21;;;;;;;6.28;3.70;;;6.40;99.90;;;;;;4944565;29;20094;-77
2021/12/08 13:05:08;;;;;;;5.85;3.83;;;6.40;99.90;;;;;;4950150;29;20051;-79
2021/12/08 13:07:39;;;;;;;7.88;3.97;;;6.50;99.90;;;;;;4964301;29;20313;-77
2021/12/08 13:10:18;;;;;;;9.40;4.60;;;6.60;99.90;;;;;;4960524;29;20038;-78
2021/12/08 13:12:45;;;;;;;6.70;3.97;;;6.60;99.90;;;;;;4942108;29;20106;-77
2021/12/08 13:15:24;;;;;;;8.35;4.72;;;6.60;99.90;;;;;;4938591;28;20219;-77
2021/12/08 13:18:00;;;;;;;8.93;4.78;;;6.60;99.90;;;;;;4944292;29;20036;-78
2021/12/08 13:20:28;;;;;;;8.73;4.82;;;6.60;99.90;;;;;;4944728;29;20043;-77
2021/12/08 13:23:01;;;;;;;10.52;5.30;;;6.60;99.90;;;;;;4942812;29;20203;-77
2021/12/08 13:25:57;;;;;;;8.00;4.88;;;6.50;99.90;;;;;;4943467;29;20088;-76
2021/12/08 13:28:28;;;;;;;13.18;5.50;;;6.50;99.90;;;;;;4943370;29;20045;-77
2021/12/08 13:30:59;;;;;;;10.23;5.95;;;6.50;99.90;;;;;;4951459;28;20062;-78
2021/12/08 13:33:35;;;;;;;10.07;5.63;;;6.50;99.90;;;;;;4941433;29;20035;-78
2021/12/08 13:36:23;;;;;;;9.80;5.60;;;6.40;99.90;;;;;;4925760;29;20059;-77
2021/12/08 13:38:58;;;;;;;;;;;6.40;99.90;;;;;;4881097;29;20041;-77
2021/12/08 13:41:26;;;;;;;9.75;6.03;;;6.40;99.90;;;;;;4889343;29;19978;-77
2021/12/08 13:43:54;;;;;;;10.38;5.47;;;6.30;99.90;;;;;;4891184;29;20029;-77
2021/12/08 13:46:49;;;;;;;9.18;5.97;;;6.30;99.90;;;;;;4897795;29;20323;-77
2021/12/08 13:49:31;;;;;;;9.27;4.90;;;6.30;99.90;;;;;;4906298;29;20097;-77
2021/12/08 13:52:09;;;;;;;8.98;5.32;;;6.30;99.90;;;;;;4891791;29;20037;-75
2021/12/08 13:54:37;;;;;;;7.55;4.90;;;6.30;99.90;;;;;;4916204;29;20083;-78
2021/12/08 13:57:23;;;;;;;;;;;6.20;99.90;;;;;;4901946;29;20084;-76
2021/12/08 14:00:16;;;;;;;9.80;5.47;;;6.20;99.90;;;;;;4889453;29;19975;-78
2021/12/08 14:03:09;;;;;;;8.10;4.97;;;6.20;99.90;;;;;;4889479;29;20072;-77
2021/12/08 14:06:05;;;;;;;7.95;4.90;;;6.10;99.90;;;;;;4885973;29;20048;-78
2021/12/08 14:08:40;;;;;;;8.45;5.50;;;6.00;99.90;;;;;;4880980;29;20048;-76
2021/12/08 14:11:10;;;;;;;8.93;5.43;;;5.90;99.90;;;;;;4906209;29;20070;-78
2021/12/08 14:13:48;;;;;;;12.45;5.82;;;5.90;99.90;;;;;;4904771;29;20032;-78